Time;durP1;ratioP1;P1;durP2;ratioP2;P2;SDS_P1;SDS_P2;PMS_P1;PMS_P2;Temp;Humidity;BMP_temperature;BMP_pressure;BME280_temperature;BME280_humidity;BME280_pressure;Samples;Min_cycle;Max_cycle;Signal;HPM_P1;HPM_P2
2023/02/04 00:01:19;;;;;;;;;;;;;;;20.07;33.70;100530.45;105710;1285;61384;-81
2023/02/04 00:03:45;;;;;;;;;;;;;;;20.07;33.71;100533.29;105737;1285;61301;-81
2023/02/04 00:06:10;;;;;;;;;;;;;;;20.07;33.80;100531.16;105718;1291;61295;-81
2023/02/04 00:08:36;;;;;;;;;;;;;;;20.07;33.76;100524.91;105760;1285;61397;-81
2023/02/04 00:11:03;;;;;;;;;;;;;;;20.07;33.86;100522.39;105878;1285;73273;-81
2023/02/04 00:13:28;;;;;;;;;;;;;;;20.08;33.70;100520.40;105692;1286;74434;-81
2023/02/04 00:15:54;;;;;;;;;;;;;;;20.07;33.72;100514.55;105712;1285;61381;-81
2023/02/04 00:18:19;;;;;;;;;;;;;;;20.07;33.73;100514.91;105737;1285;61683;-81
2023/02/04 00:20:45;;;;;;;;;;;;;;;20.07;33.69;100504.35;105861;1285;61301;-81
2023/02/04 00:23:10;;;;;;;;;;;;;;;20.07;33.76;100490.05;105905;1286;61266;-81
2023/02/04 00:25:36;;;;;;;;;;;;;;;20.07;33.64;100482.59;105577;1285;61286;-81
2023/02/04 00:28:02;;;;;;;;;;;;;;;20.07;33.74;100477.56;105766;1285;61302;-81
2023/02/04 00:30:28;;;;;;;;;;;;;;;20.08;33.72;100470.73;105878;1285;61723;-81
2023/02/04 00:32:55;;;;;;;;;;;;;;;20.08;33.79;100464.33;105857;1285;61388;-81
2023/02/04 00:35:24;;;;;;;;;;;;;;;20.07;33.67;100457.02;105604;1285;61262;-81
2023/02/04 00:37:50;;;;;;;;;;;;;;;20.07;33.85;100458.08;105745;1285;61255;-81
2023/02/04 00:40:15;;;;;;;;;;;;;;;20.07;33.64;100455.79;105828;1285;61455;-81
2023/02/04 00:42:41;;;;;;;;;;;;;;;20.07;33.79;100450.92;105927;1285;61250;-81
2023/02/04 00:45:07;;;;;;;;;;;;;;;20.07;33.64;100451.82;105933;1286;61356;-81
2023/02/04 00:47:32;;;;;;;;;;;;;;;20.08;33.72;100452.88;105945;1284;59535;-81
2023/02/04 00:49:58;;;;;;;;;;;;;;;20.08;33.84;100451.61;105985;1284;60554;-81
2023/02/04 00:52:23;;;;;;;;;;;;;;;20.08;33.64;100446.77;106075;1285;61134;-81
2023/02/04 00:54:49;;;;;;;;;;;;;;;20.09;33.65;100444.77;105964;1286;59606;-81
2023/02/04 00:57:14;;;;;;;;;;;;;;;20.08;33.73;100447.27;105970;1285;59679;-81
2023/02/04 00:59:40;;;;;;;;;;;;;;;20.09;33.60;100445.27;105764;1285;61173;-81
2023/02/04 01:02:05;;;;;;;;;;;;;;;20.09;33.68;100434.91;105762;1286;61350;-81
2023/02/04 01:04:31;;;;;;;;;;;;;;;20.10;33.66;100427.02;105728;1286;61279;-81
2023/02/04 01:06:57;;;;;;;;;;;;;;;20.10;33.73;100430.39;105833;1286;61415;-81
2023/02/04 01:09:22;;;;;;;;;;;;;;;20.09;33.71;100419.33;105851;1286;61289;-81
2023/02/04 01:11:48;;;;;;;;;;;;;;;20.09;33.75;100415.77;105702;1284;61254;-81
2023/02/04 01:14:13;;;;;;;;;;;;;;;20.10;33.72;100415.20;105927;1286;61333;-81
2023/02/04 01:16:39;;;;;;;;;;;;;;;20.08;33.61;100405.11;105862;1286;61328;-81
2023/02/04 01:19:04;;;;;;;;;;;;;;;20.08;33.78;100395.83;105861;1287;61369;-81
2023/02/04 01:21:30;;;;;;;;;;;;;;;20.09;33.74;100397.05;105886;1285;61307;-81
2023/02/04 01:23:55;;;;;;;;;;;;;;;20.08;33.73;100395.30;105886;1286;61256;-81
2023/02/04 01:26:21;;;;;;;;;;;;;;;20.08;33.74;100385.67;105921;1285;61372;-81
2023/02/04 01:28:47;;;;;;;;;;;;;;;20.08;33.77;100380.88;105890;1285;61123;-81
2023/02/04 01:31:12;;;;;;;;;;;;;;;20.08;33.74;100376.05;105953;1286;61263;-81
2023/02/04 01:33:37;;;;;;;;;;;;;;;20.08;33.86;100369.42;105961;1284;61353;-81
2023/02/04 01:36:03;;;;;;;;;;;;;;;20.07;33.84;100365.73;105878;1285;61302;-81
2023/02/04 01:38:28;;;;;;;;;;;;;;;20.08;33.72;100364.27;105977;1284;60015;-81
2023/02/04 01:40:55;;;;;;;;;;;;;;;20.08;33.78;100365.52;105852;1285;61467;-81
2023/02/04 01:43:43;;;;;;;;;;;;;;;20.07;33.73;100362.13;105887;1288;61441;-81
2023/02/04 01:46:09;;;;;;;;;;;;;;;20.08;33.85;100361.58;105267;1291;75209;-81
2023/02/04 01:48:34;;;;;;;;;;;;;;;20.08;33.83;100356.76;105129;1291;61531;-81
2023/02/04 01:51:07;;;;;;;;;;;;;;;20.08;33.85;100356.21;105269;1291;61299;-81
2023/02/04 01:53:32;;;;;;;;;;;;;;;20.08;33.70;100351.93;105166;1291;72431;-81
2023/02/04 01:55:58;;;;;;;;;;;;;;;20.08;33.82;100344.96;105143;1292;61332;-81
2023/02/04 01:58:24;;;;;;;;;;;;;;;20.08;33.80;100342.99;105162;1292;61341;-81
2023/02/04 02:00:49;;;;;;;;;;;;;;;20.08;33.80;100341.55;105170;1291;61375;-81
2023/02/04 02:03:15;;;;;;;;;;;;;;;20.08;33.87;100339.21;105200;1291;61404;-81
2023/02/04 02:05:47;;;;;;;;;;;;;;;20.08;33.82;100339.41;105250;1291;72349;-81
2023/02/04 02:08:13;;;;;;;;;;;;;;;20.08;33.86;100336.41;105304;1291;74184;-81
2023/02/04 02:10:38;;;;;;;;;;;;;;;20.08;33.86;100337.23;105339;1291;61285;-81
2023/02/04 02:13:04;;;;;;;;;;;;;;;20.08;33.94;100335.67;105185;1292;61313;-81
2023/02/04 02:15:30;;;;;;;;;;;;;;;20.08;33.91;100334.44;105033;1291;61189;-81
2023/02/04 02:17:56;;;;;;;;;;;;;;;20.08;33.90;100328.02;105159;1291;61573;-81
2023/02/04 02:20:23;;;;;;;;;;;;;;;20.08;33.99;100330.84;105136;1291;61390;-81
2023/02/04 02:22:57;;;;;;;;;;;;;;;20.08;33.92;100332.66;105209;1286;59954;-81
2023/02/04 02:25:23;;;;;;;;;;;;;;;20.08;33.89;100335.13;105968;1286;71990;-81
2023/02/04 02:27:49;;;;;;;;;;;;;;;20.08;33.89;100322.48;105709;1288;61183;-81
2023/02/04 02:30:16;;;;;;;;;;;;;;;20.08;34.03;100320.98;105913;1284;61372;-81
2023/02/04 02:32:42;;;;;;;;;;;;;;;20.08;33.84;100314.05;105877;1284;61240;-81
2023/02/04 02:35:08;;;;;;;;;;;;;;;20.08;34.08;100316.02;105977;1286;61237;-81
2023/02/04 02:37:33;;;;;;;;;;;;;;;20.08;33.89;100314.95;105890;1286;61272;-81
2023/02/04 02:39:59;;;;;;;;;;;;;;;20.08;33.89;100309.42;105880;1285;61321;-81
2023/02/04 02:42:24;;;;;;;;;;;;;;;20.08;33.91;100306.21;105920;1286;61216;-81
2023/02/04 02:44:52;;;;;;;;;;;;;;;20.08;33.94;100305.16;105876;1285;61285;-81
2023/02/04 02:47:19;;;;;;;;;;;;;;;20.08;33.98;100303.16;105873;1286;72916;-81
2023/02/04 02:49:45;;;;;;;;;;;;;;;20.08;33.86;100294.61;105936;1288;61247;-81
2023/02/04 02:52:11;;;;;;;;;;;;;;;20.08;34.16;100293.18;105954;1286;61295;-81
2023/02/04 02:54:36;;;;;;;;;;;;;;;20.08;34.10;100291.55;105946;1285;61245;-81
2023/02/04 02:57:02;;;;;;;;;;;;;;;20.07;34.04;100288.73;105875;1285;61269;-81
2023/02/04 02:59:27;;;;;;;;;;;;;;;20.08;34.14;100289.08;105866;1286;61368;-81
2023/02/04 03:01:56;;;;;;;;;;;;;;;20.07;33.99;100283.20;105932;1285;60177;-81
2023/02/04 03:04:22;;;;;;;;;;;;;;;20.08;34.08;100276.89;105873;1285;61246;-81
2023/02/04 03:06:50;;;;;;;;;;;;;;;20.07;34.14;100272.29;105879;1284;61231;-81
2023/02/04 03:09:15;;;;;;;;;;;;;;;20.07;34.03;100262.65;105870;1286;73982;-81
2023/02/04 03:11:40;;;;;;;;;;;;;;;20.08;34.19;100260.15;105675;1285;61938;-81
2023/02/04 03:14:06;;;;;;;;;;;;;;;20.07;34.24;100258.38;105972;1284;61230;-81
2023/02/04 03:16:32;;;;;;;;;;;;;;;20.07;34.05;100254.98;105891;1284;61291;-81
2023/02/04 03:18:58;;;;;;;;;;;;;;;20.08;34.23;100252.27;105991;1286;61266;-81
2023/02/04 03:21:23;;;;;;;;;;;;;;;20.07;34.17;100251.41;105708;1285;73233;-81
2023/02/04 03:23:50;;;;;;;;;;;;;;;20.07;34.15;100246.09;105879;1285;61411;-81
2023/02/04 03:26:16;;;;;;;;;;;;;;;20.07;34.16;100244.42;105928;1285;59892;-81
2023/02/04 03:28:41;;;;;;;;;;;;;;;20.07;34.13;100239.96;105880;1286;61280;-81
2023/02/04 03:31:09;;;;;;;;;;;;;;;20.07;34.17;100236.39;105908;1285;61348;-81
2023/02/04 03:33:35;;;;;;;;;;;;;;;20.07;34.23;100233.02;105875;1286;61225;-81
2023/02/04 03:36:00;;;;;;;;;;;;;;;20.07;34.17;100234.96;105894;1285;61284;-81
2023/02/04 03:38:26;;;;;;;;;;;;;;;20.07;34.09;100234.08;105893;1286;60095;-81
2023/02/04 03:40:51;;;;;;;;;;;;;;;20.07;34.14;100229.23;105900;1286;61350;-81
2023/02/04 03:43:17;;;;;;;;;;;;;;;20.07;34.13;100223.71;105919;1288;72708;-81
2023/02/04 03:45:44;;;;;;;;;;;;;;;20.07;34.18;100218.92;105940;1285;74171;-81
2023/02/04 03:48:09;;;;;;;;;;;;;;;20.07;34.16;100217.46;105739;1286;61451;-81
2023/02/04 03:50:35;;;;;;;;;;;;;;;20.07;34.20;100215.31;105974;1286;61231;-81
2023/02/04 03:53:00;;;;;;;;;;;;;;;20.07;34.21;100218.17;105883;1285;61346;-81
2023/02/04 03:55:26;;;;;;;;;;;;;;;20.07;34.18;100218.16;105904;1286;61274;-81
2023/02/04 03:57:52;;;;;;;;;;;;;;;20.07;34.16;100219.06;105722;1286;74438;-81
2023/02/04 04:00:17;;;;;;;;;;;;;;;20.08;34.20;100216.36;105875;1285;61320;-81
2023/02/04 04:02:43;;;;;;;;;;;;;;;20.08;34.20;100211.91;105908;1289;61173;-81
2023/02/04 04:05:08;;;;;;;;;;;;;;;20.07;34.11;100210.85;105940;1286;61266;-81
2023/02/04 04:07:34;;;;;;;;;;;;;;;20.07;34.27;100206.91;105734;1286;61302;-81
2023/02/04 04:09:59;;;;;;;;;;;;;;;20.07;34.28;100207.98;105914;1286;61270;-81
2023/02/04 04:12:25;;;;;;;;;;;;;;;20.07;34.11;100204.07;105864;1286;61182;-81
2023/02/04 04:14:52;;;;;;;;;;;;;;;20.07;34.31;100200.31;105956;1285;61240;-81
2023/02/04 04:17:17;;;;;;;;;;;;;;;20.07;34.36;100196.89;105872;1286;61273;-81
2023/02/04 04:19:43;;;;;;;;;;;;;;;20.07;34.19;100198.00;105869;1286;61385;-81
2023/02/04 04:22:09;;;;;;;;;;;;;;;20.07;34.29;100191.58;105902;1286;61282;-81
2023/02/04 04:24:35;;;;;;;;;;;;;;;20.07;34.22;100193.89;105884;1286;61257;-81
2023/02/04 04:27:00;;;;;;;;;;;;;;;20.07;34.27;100191.20;105760;1285;61339;-81
2023/02/04 04:29:26;;;;;;;;;;;;;;;20.08;34.27;100192.09;105937;1285;72433;-81
2023/02/04 04:31:51;;;;;;;;;;;;;;;20.08;34.23;100188.50;105934;1286;61393;-81
2023/02/04 04:34:17;;;;;;;;;;;;;;;20.07;34.25;100184.42;105897;1286;61263;-81
2023/02/04 04:36:42;;;;;;;;;;;;;;;20.07;34.35;100188.69;105913;1285;61229;-81
2023/02/04 04:39:08;;;;;;;;;;;;;;;20.07;34.36;100186.38;105900;1286;61367;-81
2023/02/04 04:41:33;;;;;;;;;;;;;;;20.07;34.33;100186.56;105691;1288;72277;-81
2023/02/04 04:43:59;;;;;;;;;;;;;;;20.08;34.43;100186.90;105951;1286;61278;-81
2023/02/04 04:46:24;;;;;;;;;;;;;;;20.08;34.52;100188.14;105729;1286;61952;-81
2023/02/04 04:48:50;;;;;;;;;;;;;;;20.07;34.34;100187.98;105873;1286;61352;-81
2023/02/04 04:51:15;;;;;;;;;;;;;;;20.07;34.18;100187.61;105912;1286;61265;-81
2023/02/04 04:53:41;;;;;;;;;;;;;;;20.07;34.32;100182.98;105839;1286;72501;-81
2023/02/04 04:56:06;;;;;;;;;;;;;;;20.07;34.42;100181.02;105870;1286;61279;-81
2023/02/04 04:58:32;;;;;;;;;;;;;;;20.07;34.31;100176.59;105898;1286;60105;-81
2023/02/04 05:00:58;;;;;;;;;;;;;;;20.07;34.31;100181.38;105898;1286;61248;-81
2023/02/04 05:03:23;;;;;;;;;;;;;;;20.07;34.47;100181.89;105756;1285;61385;-81
2023/02/04 05:05:49;;;;;;;;;;;;;;;20.07;34.41;100184.77;105934;1284;72575;-81
2023/02/04 05:08:15;;;;;;;;;;;;;;;20.08;34.54;100187.61;105876;1286;61297;-81
2023/02/04 05:10:44;;;;;;;;;;;;;;;20.08;34.55;100186.89;105881;1286;61240;-81
2023/02/04 05:13:10;;;;;;;;;;;;;;;20.08;34.49;100182.95;105848;1286;59987;-81
2023/02/04 05:15:36;;;;;;;;;;;;;;;20.08;34.35;100181.34;105870;1286;61134;-80
2023/02/04 05:18:02;;;;;;;;;;;;;;;20.08;34.41;100179.90;105970;1286;61278;-81
2023/02/04 05:20:28;;;;;;;;;;;;;;;20.07;34.35;100179.05;105876;1285;61284;-81
2023/02/04 05:22:54;;;;;;;;;;;;;;;20.08;34.31;100179.39;105903;1285;61225;-81
2023/02/04 05:25:21;;;;;;;;;;;;;;;20.08;34.42;100183.86;105736;1286;61205;-81
2023/02/04 05:27:47;;;;;;;;;;;;;;;20.08;34.45;100182.58;105931;1286;61161;-81
2023/02/04 05:30:13;;;;;;;;;;;;;;;20.08;34.35;100186.00;105882;1285;61379;-81
2023/02/04 05:32:39;;;;;;;;;;;;;;;20.08;34.46;100187.38;105948;1286;59269;-81
2023/02/04 05:35:05;;;;;;;;;;;;;;;20.08;34.51;100188.27;105863;1290;61375;-81
2023/02/04 05:37:30;;;;;;;;;;;;;;;20.08;34.41;100182.73;105989;1286;61333;-81
2023/02/04 05:39:56;;;;;;;;;;;;;;;20.08;34.55;100182.05;105898;1284;61929;-81
2023/02/04 05:42:21;;;;;;;;;;;;;;;20.08;34.68;100183.10;105886;1286;61269;-81
2023/02/04 05:44:47;;;;;;;;;;;;;;;20.08;34.52;100182.89;105928;1286;61285;-81
2023/02/04 05:47:13;;;;;;;;;;;;;;;20.08;34.53;100185.97;105849;1286;61265;-81
2023/02/04 05:49:38;;;;;;;;;;;;;;;20.08;34.64;100187.02;105939;1285;61746;-81
2023/02/04 05:52:03;;;;;;;;;;;;;;;20.08;34.57;100186.64;105854;1284;75908;-81
2023/02/04 05:54:29;;;;;;;;;;;;;;;20.08;34.49;100188.44;105944;1285;61230;-81
2023/02/04 05:56:55;;;;;;;;;;;;;;;20.08;34.59;100182.05;105727;1285;61273;-81
2023/02/04 05:59:20;;;;;;;;;;;;;;;20.08;34.68;100179.51;105847;1285;61281;-81
2023/02/04 06:01:46;;;;;;;;;;;;;;;20.08;34.50;100179.17;105880;1286;61231;-81
2023/02/04 06:04:11;;;;;;;;;;;;;;;20.08;34.62;100182.89;105952;1285;74642;-81
2023/02/04 06:06:37;;;;;;;;;;;;;;;20.08;34.66;100179.48;105896;1285;61361;-81
2023/02/04 06:09:02;;;;;;;;;;;;;;;20.09;34.69;100182.12;105967;1285;60137;-81
2023/02/04 06:11:28;;;;;;;;;;;;;;;20.09;34.62;100180.36;105875;1285;61301;-81
2023/02/04 06:13:53;;;;;;;;;;;;;;;20.09;34.78;100188.38;105938;1286;61279;-81
2023/02/04 06:16:19;;;;;;;;;;;;;;;20.10;34.72;100185.48;105873;1285;74504;-81
2023/02/04 06:18:44;;;;;;;;;;;;;;;20.10;34.73;100189.05;105944;1286;61380;-81
2023/02/04 06:21:10;;;;;;;;;;;;;;;20.10;34.56;100188.16;105895;1286;61383;-81
2023/02/04 06:23:36;;;;;;;;;;;;;;;20.10;34.60;100182.95;105901;1285;61317;-81
2023/02/04 06:26:01;;;;;;;;;;;;;;;20.11;34.68;100177.36;105906;1285;61254;-81
2023/02/04 06:28:26;;;;;;;;;;;;;;;20.11;34.78;100176.44;105847;1284;74398;-81
2023/02/04 06:30:52;;;;;;;;;;;;;;;20.11;34.70;100181.13;105935;1284;61342;-81
2023/02/04 06:33:17;;;;;;;;;;;;;;;20.11;34.76;100184.85;105945;1286;61365;-81
2023/02/04 06:35:43;;;;;;;;;;;;;;;20.11;34.68;100183.77;105848;1286;61438;-81
2023/02/04 06:38:08;;;;;;;;;;;;;;;20.12;34.77;100187.30;105913;1286;61320;-81
2023/02/04 06:40:34;;;;;;;;;;;;;;;20.11;34.79;100182.85;105870;1286;75604;-81
2023/02/04 06:43:00;;;;;;;;;;;;;;;20.12;34.91;100186.92;105882;1284;61241;-81
2023/02/04 06:45:26;;;;;;;;;;;;;;;20.12;34.74;100183.88;105875;1286;61262;-81
2023/02/04 06:47:51;;;;;;;;;;;;;;;20.13;34.73;100190.80;105875;1286;61342;-81
2023/02/04 06:50:17;;;;;;;;;;;;;;;20.13;34.84;100190.25;105847;1285;61355;-81
2023/02/04 06:52:47;;;;;;;;;;;;;;;20.14;34.86;100185.93;105868;1286;61138;-81
2023/02/04 06:55:13;;;;;;;;;;;;;;;20.13;34.81;100183.96;105856;1286;61313;-81
2023/02/04 06:57:38;;;;;;;;;;;;;;;20.14;34.85;100184.63;105853;1284;61346;-81
2023/02/04 07:00:05;;;;;;;;;;;;;;;20.14;34.71;100178.74;106003;1286;61292;-81
2023/02/04 07:02:30;;;;;;;;;;;;;;;20.14;34.88;100178.01;105410;1286;730874;-81
2023/02/04 07:04:56;;;;;;;;;;;;;;;20.15;34.82;100182.60;105898;1286;61256;-81
2023/02/04 07:07:21;;;;;;;;;;;;;;;20.15;34.82;100187.61;105983;1284;61372;-81
2023/02/04 07:09:47;;;;;;;;;;;;;;;20.15;34.99;100187.73;105833;1286;73693;-81
2023/02/04 07:12:12;;;;;;;;;;;;;;;20.15;34.75;100192.76;105894;1286;61301;-81
2023/02/04 07:14:38;;;;;;;;;;;;;;;20.16;34.76;100193.80;105884;1286;61267;-81
2023/02/04 07:17:03;;;;;;;;;;;;;;;20.16;34.72;100195.04;105882;1286;61305;-81
2023/02/04 07:19:29;;;;;;;;;;;;;;;20.16;34.94;100194.50;106005;1286;61281;-81
2023/02/04 07:21:56;;;;;;;;;;;;;;;20.16;34.85;100193.95;105915;1286;73062;-81
2023/02/04 07:24:22;;;;;;;;;;;;;;;20.16;34.75;100194.48;105849;1284;75480;-81
2023/02/04 07:26:48;;;;;;;;;;;;;;;20.16;34.77;100196.27;105890;1286;61797;-81
2023/02/04 07:29:13;;;;;;;;;;;;;;;20.16;34.94;100192.51;105694;1286;61243;-81
2023/02/04 07:31:38;;;;;;;;;;;;;;;20.16;34.83;100194.84;105948;1286;61286;-81
2023/02/04 07:34:04;;;;;;;;;;;;;;;20.16;34.89;100193.26;105860;1286;61261;-81
2023/02/04 07:36:30;;;;;;;;;;;;;;;20.16;35.05;100195.38;105929;1286;61285;-81
2023/02/04 07:38:55;;;;;;;;;;;;;;;20.16;35.02;100192.16;105882;1286;61324;-81
2023/02/04 07:41:21;;;;;;;;;;;;;;;20.15;34.95;100191.86;105680;1286;61298;-81
2023/02/04 07:43:47;;;;;;;;;;;;;;;20.15;34.95;100193.27;105878;1286;61287;-81
2023/02/04 07:46:13;;;;;;;;;;;;;;;20.16;34.94;100190.04;105851;1286;61283;-81
2023/02/04 07:48:38;;;;;;;;;;;;;;;20.15;34.97;100192.75;105897;1286;61291;-81
2023/02/04 07:51:04;;;;;;;;;;;;;;;20.15;34.96;100189.90;105879;1286;61362;-81
2023/02/04 07:53:29;;;;;;;;;;;;;;;20.15;34.98;100187.05;105896;1285;61281;-81
2023/02/04 07:55:55;;;;;;;;;;;;;;;20.15;34.98;100182.08;105879;1286;61314;-81
2023/02/04 07:58:21;;;;;;;;;;;;;;;20.15;34.97;100180.46;105929;1286;61300;-81
2023/02/04 08:00:47;;;;;;;;;;;;;;;20.15;35.02;100184.40;105859;1286;61237;-81
2023/02/04 08:03:13;;;;;;;;;;;;;;;20.15;34.97;100181.73;105701;1285;61397;-81
2023/02/04 08:05:38;;;;;;;;;;;;;;;20.14;34.89;100181.73;105944;1286;61160;-81
2023/02/04 08:08:04;;;;;;;;;;;;;;;20.14;34.93;100180.33;105962;1286;61281;-81
2023/02/04 08:10:29;;;;;;;;;;;;;;;20.14;35.20;100181.03;105909;1288;61288;-81
2023/02/04 08:12:55;;;;;;;;;;;;;;;20.15;35.07;100182.09;105847;1286;61378;-81
2023/02/04 08:15:20;;;;;;;;;;;;;;;20.14;35.00;100181.42;105874;1286;61294;-81
2023/02/04 08:17:46;;;;;;;;;;;;;;;20.14;34.97;100179.25;105852;1291;61263;-81
2023/02/04 08:20:11;;;;;;;;;;;;;;;20.14;34.99;100181.04;105903;1286;61481;-81
2023/02/04 08:22:37;;;;;;;;;;;;;;;20.14;35.10;100186.92;105858;1286;75550;-81
2023/02/04 08:25:04;;;;;;;;;;;;;;;20.14;35.11;100190.36;105889;1286;61239;-81
2023/02/04 08:27:30;;;;;;;;;;;;;;;20.14;34.98;100191.92;105868;1286;61257;-81
2023/02/04 08:29:55;;;;;;;;;;;;;;;20.14;34.92;100193.19;105861;1286;61374;-81
2023/02/04 08:32:22;;;;;;;;;;;;;;;20.14;34.96;100196.39;105697;1286;61381;-81
2023/02/04 08:34:47;;;;;;;;;;;;;;;20.14;35.02;100195.35;105958;1286;61247;-81
2023/02/04 08:37:14;;;;;;;;;;;;;;;20.14;34.99;100201.05;105959;1286;61282;-81
2023/02/04 08:39:44;;;;;;;;;;;;;;;20.14;35.08;100203.91;105853;1286;61237;-81
2023/02/04 08:42:12;;;;;;;;;;;;;;;20.14;35.02;100208.36;105847;1286;74555;-81
2023/02/04 08:44:38;;;;;;;;;;;;;;;20.14;34.99;100207.31;105853;1286;61749;-81
2023/02/04 08:47:04;;;;;;;;;;;;;;;20.14;35.06;100206.73;105863;1286;61400;-81
2023/02/04 08:49:30;;;;;;;;;;;;;;;20.14;34.92;100210.31;105598;1291;61432;-82
2023/02/04 08:51:55;;;;;;;;;;;;;;;20.14;35.14;100211.75;105494;1289;61528;-81
2023/02/04 08:54:21;;;;;;;;;;;;;;;20.15;34.94;100213.71;105488;1289;61330;-81
2023/02/04 08:56:46;;;;;;;;;;;;;;;20.14;35.11;100218.89;105519;1288;61442;-81
2023/02/04 08:59:12;;;;;;;;;;;;;;;20.14;34.97;100222.46;105509;1289;60336;-81
2023/02/04 09:01:37;;;;;;;;;;;;;;;20.15;34.92;100223.18;105600;1289;61352;-81
2023/02/04 09:04:03;;;;;;;;;;;;;;;20.15;35.03;100222.98;105518;1289;61319;-81
2023/02/04 09:06:28;;;;;;;;;;;;;;;20.15;34.97;100221.02;105533;1291;61326;-81
2023/02/04 09:08:54;;;;;;;;;;;;;;;20.15;35.00;100219.02;105513;1289;61280;-81
2023/02/04 09:11:19;;;;;;;;;;;;;;;20.16;34.94;100218.79;105677;1290;61155;-81
2023/02/04 09:13:45;;;;;;;;;;;;;;;20.16;35.02;100220.40;105681;1289;60079;-81
2023/02/04 09:16:10;;;;;;;;;;;;;;;20.16;34.93;100220.55;105583;1289;61241;-81
2023/02/04 09:18:36;;;;;;;;;;;;;;;20.16;35.00;100222.52;105676;1289;61275;-81
2023/02/04 09:21:02;;;;;;;;;;;;;;;20.17;35.01;100221.00;105834;1288;61350;-81
2023/02/04 09:23:28;;;;;;;;;;;;;;;20.17;35.00;100222.06;105907;1285;61413;-81
2023/02/04 09:25:54;;;;;;;;;;;;;;;20.18;35.05;100220.02;105913;1286;73010;-81
2023/02/04 09:28:19;;;;;;;;;;;;;;;20.19;35.00;100218.77;105916;1286;61272;-81
2023/02/04 09:30:45;;;;;;;;;;;;;;;20.19;34.98;100217.30;105884;1286;61208;-81
2023/02/04 09:33:11;;;;;;;;;;;;;;;20.19;35.00;100217.80;105928;1285;61435;-81
2023/02/04 09:35:37;;;;;;;;;;;;;;;20.20;35.02;100215.95;105916;1286;59274;-81
2023/02/04 09:38:02;;;;;;;;;;;;;;;20.20;35.04;100210.40;105891;1286;61301;-81
2023/02/04 09:40:29;;;;;;;;;;;;;;;20.21;34.85;100209.27;105970;1286;61246;-81
2023/02/04 09:42:54;;;;;;;;;;;;;;;20.21;34.83;100206.77;105666;1291;61272;-81
2023/02/04 09:45:22;;;;;;;;;;;;;;;20.21;34.97;100206.95;105944;1288;61380;-81
2023/02/04 09:47:48;;;;;;;;;;;;;;;20.21;34.94;100205.70;105878;1285;61272;-81
2023/02/04 09:50:14;;;;;;;;;;;;;;;20.21;34.97;100208.58;105847;1285;61304;-81
2023/02/04 09:52:40;;;;;;;;;;;;;;;20.21;34.82;100202.84;105854;1287;61316;-81
2023/02/04 09:55:09;;;;;;;;;;;;;;;20.21;34.86;100206.02;105717;1286;61283;-81
2023/02/04 09:57:34;;;;;;;;;;;;;;;20.21;34.91;100204.96;105863;1286;73474;-81
2023/02/04 10:00:00;;;;;;;;;;;;;;;20.21;34.79;100205.48;105843;1286;61304;-81
2023/02/04 10:02:25;;;;;;;;;;;;;;;20.22;34.83;100204.20;105962;1286;61161;-81
2023/02/04 10:04:52;;;;;;;;;;;;;;;20.23;34.70;100201.82;105991;1286;61382;-81
2023/02/04 10:07:20;;;;;;;;;;;;;;;20.22;34.91;100206.15;105850;1286;61373;-81
2023/02/04 10:09:46;;;;;;;;;;;;;;;20.22;34.93;100207.95;105833;1289;61231;-81
2023/02/04 10:12:11;;;;;;;;;;;;;;;20.23;34.66;100212.02;105924;1288;61291;-81
2023/02/04 10:14:37;;;;;;;;;;;;;;;20.23;34.77;100213.57;105879;1290;61282;-81
2023/02/04 10:17:03;;;;;;;;;;;;;;;20.23;34.91;100214.48;105824;1286;61112;-81
2023/02/04 10:19:29;;;;;;;;;;;;;;;20.23;34.85;100215.72;105836;1286;61453;-81
2023/02/04 10:21:57;;;;;;;;;;;;;;;20.23;34.72;100216.26;105929;1286;61391;-81
2023/02/04 10:24:25;;;;;;;;;;;;;;;20.24;34.73;100213.35;105825;1291;61108;-81
2023/02/04 10:26:50;;;;;;;;;;;;;;;20.24;34.83;100208.70;105955;1284;61599;-81
2023/02/04 10:29:17;;;;;;;;;;;;;;;20.24;34.82;100208.50;105934;1286;61246;-81
2023/02/04 10:31:43;;;;;;;;;;;;;;;20.24;34.79;100212.61;105848;1286;61971;-81
2023/02/04 10:34:22;;;;;;;;;;;;;;;20.24;34.62;100212.09;105910;1286;61367;-81
2023/02/04 10:36:52;;;;;;;;;;;;;;;20.24;34.73;100209.38;105874;1286;61298;-81
2023/02/04 10:39:21;;;;;;;;;;;;;;;20.24;34.79;100213.69;105838;1286;73323;-81
2023/02/04 10:41:48;;;;;;;;;;;;;;;20.24;34.74;100211.38;105844;1286;74753;-81
2023/02/04 10:44:14;;;;;;;;;;;;;;;20.24;34.70;100217.82;105948;1285;61152;-81
2023/02/04 10:46:40;;;;;;;;;;;;;;;20.23;34.69;100214.09;105891;1286;61218;-81
2023/02/04 10:49:19;;;;;;;;;;;;;;;20.24;34.77;100212.45;105866;1286;61307;-81
2023/02/04 10:51:45;;;;;;;;;;;;;;;20.24;34.59;100206.71;105936;1286;75674;-81
2023/02/04 10:54:29;;;;;;;;;;;;;;;20.24;34.71;100204.77;105848;1289;61288;-81
2023/02/04 10:57:07;;;;;;;;;;;;;;;20.24;34.77;100203.16;105921;1285;61059;-81
2023/02/04 10:59:33;;;;;;;;;;;;;;;20.23;34.66;100194.96;105849;1285;72720;-81
2023/02/04 11:01:59;;;;;;;;;;;;;;;20.23;34.61;100194.42;105886;1286;61298;-81
2023/02/04 11:04:25;;;;;;;;;;;;;;;20.24;34.61;100193.16;105929;1286;61230;-81
2023/02/04 11:06:51;;;;;;;;;;;;;;;20.23;34.59;100195.15;105892;1291;61288;-81
2023/02/04 11:09:17;;;;;;;;;;;;;;;20.24;34.76;100189.40;105866;1285;61180;-81
2023/02/04 11:11:50;;;;;;;;;;;;;;;20.24;34.69;100190.48;105840;1285;61356;-81
2023/02/04 11:14:27;;;;;;;;;;;;;;;20.24;34.54;100194.38;106053;1286;61101;-81
2023/02/04 11:16:53;;;;;;;;;;;;;;;20.24;34.69;100193.63;105960;1286;61131;-81
2023/02/04 11:19:29;;;;;;;;;;;;;;;20.25;34.66;100195.23;105929;1286;72334;-81
2023/02/04 11:22:02;;;;;;;;;;;;;;;20.25;34.70;100195.95;105853;1286;74283;-81
2023/02/04 11:24:31;;;;;;;;;;;;;;;20.25;34.40;100195.77;105862;1287;61818;-81
2023/02/04 11:27:17;;;;;;;;;;;;;;;20.24;34.58;100199.52;105843;1286;61269;-81
2023/02/04 11:29:43;;;;;;;;;;;;;;;20.25;34.59;100201.11;105945;1285;72331;-81
2023/02/04 11:32:25;;;;;;;;;;;;;;;20.24;34.65;100200.96;105686;1291;61429;-81
2023/02/04 11:34:51;;;;;;;;;;;;;;;20.25;34.60;100201.81;105703;1288;61262;-81
2023/02/04 11:37:19;;;;;;;;;;;;;;;20.25;34.63;100202.70;105698;1289;61378;-81
2023/02/04 11:39:48;;;;;;;;;;;;;;;20.25;34.59;100207.86;105491;1289;72713;-81
2023/02/04 11:42:16;;;;;;;;;;;;;;;20.25;34.60;100210.38;105566;1290;74674;-81
2023/02/04 11:44:41;;;;;;;;;;;;;;;20.25;34.52;100212.52;105693;1290;61170;-81
2023/02/04 11:47:07;;;;;;;;;;;;;;;20.25;34.53;100213.92;105604;1294;61398;-81
2023/02/04 11:49:34;;;;;;;;;;;;;;;20.26;34.66;100218.55;105520;1292;61221;-81
2023/02/04 11:52:09;;;;;;;;;;;;;;;20.25;34.49;100214.13;105504;1289;61179;-81
2023/02/04 11:54:35;;;;;;;;;;;;;;;20.25;34.58;100219.66;105565;1292;61327;-81
2023/02/04 11:57:00;;;;;;;;;;;;;;;20.26;34.42;100224.08;105530;1288;61208;-81
2023/02/04 11:59:26;;;;;;;;;;;;;;;20.26;34.46;100226.20;105654;1289;61274;-81
2023/02/04 12:02:01;;;;;;;;;;;;;;;20.26;34.60;100226.40;105671;1290;61246;-81
2023/02/04 12:04:27;;;;;;;;;;;;;;;20.26;34.51;100225.89;105967;1286;61256;-81
2023/02/04 12:06:56;;;;;;;;;;;;;;;20.26;34.58;100229.98;105986;1286;62003;-81
2023/02/04 12:09:23;;;;;;;;;;;;;;;20.26;34.52;100228.86;105892;1289;73310;-81
2023/02/04 12:11:59;;;;;;;;;;;;;;;20.26;34.43;100230.68;105930;1286;74473;-81
2023/02/04 12:14:30;;;;;;;;;;;;;;;20.26;34.49;100235.29;105990;1285;61135;-81
2023/02/04 12:16:55;;;;;;;;;;;;;;;20.26;34.43;100235.48;105961;1286;61129;-81
2023/02/04 12:19:21;;;;;;;;;;;;;;;20.27;34.56;100238.12;105872;1286;61310;-81
2023/02/04 12:21:46;;;;;;;;;;;;;;;20.27;34.35;100237.78;105984;1284;61408;-81